Time;durP1;ratioP1;P1;durP2;ratioP2;P2;SDS_P1;SDS_P2;PMS_P1;PMS_P2;Temp;Humidity;BMP_temperature;BMP_pressure;BME280_temperature;BME280_humidity;BME280_pressure;Samples;Min_cycle;Max_cycle;Signal;HPM_P1;HPM_P2
2022/10/09 00:01:10;;;;;;;19.52;10.40;;;13.20;95.50;;;;;;5034676;28;20018;-57
2022/10/09 00:03:37;;;;;;;17.30;9.77;;;13.20;95.50;;;;;;5034962;28;20105;-57
2022/10/09 00:06:04;;;;;;;13.52;9.27;;;13.10;95.60;;;;;;5035135;28;20482;-62
2022/10/09 00:08:29;;;;;;;17.67;9.15;;;13.10;95.60;;;;;;5037915;28;20075;-61
2022/10/09 00:10:55;;;;;;;16.10;8.75;;;13.10;95.60;;;;;;5053083;28;20029;-59
2022/10/09 00:13:21;;;;;;;18.33;8.70;;;13.10;95.50;;;;;;5054683;28;20043;-65
2022/10/09 00:15:47;;;;;;;15.15;8.85;;;13.10;95.50;;;;;;5054380;28;20025;-60
2022/10/09 00:18:15;;;;;;;18.00;9.38;;;13.10;95.60;;;;;;5053433;28;20043;-64
2022/10/09 00:20:43;;;;;;;14.48;9.18;;;13.10;95.70;;;;;;5054548;28;20021;-63
2022/10/09 00:23:09;;;;;;;13.10;8.32;;;13.00;95.60;;;;;;5054404;28;20029;-63
2022/10/09 00:25:35;;;;;;;13.00;9.32;;;13.00;95.60;;;;;;5054545;28;20017;-65
2022/10/09 00:28:02;;;;;;;16.20;11.20;;;13.00;95.70;;;;;;5051981;28;20037;-59
2022/10/09 00:30:27;;;;;;;18.65;11.25;;;13.00;95.80;;;;;;5054125;28;20028;-64
2022/10/09 00:32:53;;;;;;;19.98;11.45;;;13.00;95.90;;;;;;5053266;28;20037;-64
2022/10/09 00:35:20;;;;;;;16.58;11.75;;;13.00;96.10;;;;;;5037075;28;20029;-61
2022/10/09 00:37:45;;;;;;;15.15;10.88;;;13.00;96.00;;;;;;5037808;28;20025;-65
2022/10/09 00:40:11;;;;;;;20.25;12.48;;;13.00;96.10;;;;;;5053400;28;20043;-58
2022/10/09 00:42:36;;;;;;;20.50;12.23;;;12.90;96.10;;;;;;5054026;28;20032;-65
2022/10/09 00:45:03;;;;;;;19.38;10.40;;;12.90;96.10;;;;;;5052436;28;20206;-64
2022/10/09 00:47:32;;;;;;;15.77;10.77;;;12.90;96.10;;;;;;5054098;28;20079;-65
2022/10/09 00:50:06;;;;;;;15.20;10.18;;;12.90;96.10;;;;;;5054129;28;20463;-65
2022/10/09 00:52:33;;;;;;;16.75;10.52;;;12.90;96.20;;;;;;5053936;28;20044;-63
2022/10/09 00:55:00;;;;;;;13.70;10.05;;;12.80;96.30;;;;;;5041429;28;20053;-63
2022/10/09 00:57:26;;;;;;;15.93;8.95;;;12.80;96.30;;;;;;5034309;28;20072;-62
2022/10/09 00:59:52;;;;;;;17.30;10.65;;;12.80;96.40;;;;;;5032315;28;20075;-60
2022/10/09 01:02:17;;;;;;;16.35;10.10;;;12.80;96.40;;;;;;5034190;28;20026;-64
2022/10/09 01:04:43;;;;;;;19.90;10.25;;;12.80;96.30;;;;;;5042192;28;20036;-63
2022/10/09 01:07:19;;;;;;;20.75;11.02;;;12.80;96.30;;;;;;5053710;28;20500;-63
2022/10/09 01:09:54;;;;;;;21.95;13.40;;;12.80;96.20;;;;;;5053580;28;20032;-60
2022/10/09 01:12:44;;;;;;;17.23;10.60;;;12.80;96.30;;;;;;5053657;28;20112;-61
2022/10/09 01:15:12;;;;;;;12.50;8.50;;;12.80;96.20;;;;;;5051810;28;20033;-58
2022/10/09 01:17:58;;;;;;;15.23;8.80;;;12.70;96.40;;;;;;5052685;28;20111;-59
2022/10/09 01:20:37;;;;;;;15.43;7.80;;;12.70;96.50;;;;;;5053500;28;20060;-58
2022/10/09 01:23:24;;;;;;;13.93;8.02;;;12.70;96.50;;;;;;5053343;28;20049;-63
2022/10/09 01:25:53;;;;;;;13.45;8.60;;;12.70;96.40;;;;;;5028100;28;20387;-57
2022/10/09 01:28:22;;;;;;;13.55;8.80;;;12.60;96.40;;;;;;5013077;28;20368;-62
2022/10/09 01:30:48;;;;;;;14.05;8.35;;;12.60;96.30;;;;;;5013185;28;20022;-60
2022/10/09 01:33:15;;;;;;;13.73;8.05;;;12.60;96.40;;;;;;5044486;28;20044;-64
2022/10/09 01:35:43;;;;;;;14.93;7.75;;;12.60;96.40;;;;;;5053365;28;20035;-57
2022/10/09 01:38:10;;;;;;;11.07;7.95;;;12.60;96.40;;;;;;5053184;28;20413;-58
2022/10/09 01:40:36;;;;;;;15.88;7.95;;;12.60;96.40;;;;;;5053127;28;20028;-57
2022/10/09 01:43:02;;;;;;;11.63;7.97;;;12.50;96.50;;;;;;5050322;28;20036;-57
2022/10/09 01:45:40;;;;;;;10.63;7.22;;;12.50;96.40;;;;;;5052072;28;20021;-60
2022/10/09 01:48:08;;;;;;;12.40;7.53;;;12.50;96.80;;;;;;5053019;28;20359;-61
2022/10/09 01:50:38;;;;;;;12.32;7.97;;;12.50;96.60;;;;;;5052941;28;20017;-57
2022/10/09 01:53:09;;;;;;;17.50;8.70;;;12.40;96.60;;;;;;5049869;28;20033;-58
2022/10/09 01:55:49;;;;;;;14.75;9.50;;;12.50;96.50;;;;;;5051941;28;20374;-57
2022/10/09 01:58:24;;;;;;;17.23;9.65;;;12.50;96.60;;;;;;5045260;28;20067;-58
2022/10/09 02:01:17;;;;;;;12.65;9.18;;;12.50;96.60;;;;;;5032906;28;20048;-62
2022/10/09 02:03:45;;;;;;;;;;;12.40;96.80;;;;;;5046569;28;20024;-58
2022/10/09 02:06:13;;;;;;;17.65;10.48;;;12.40;96.80;;;;;;5052689;28;19913;-57
2022/10/09 02:08:41;;;;;;;15.45;9.98;;;12.40;96.80;;;;;;5052647;28;20032;-57
2022/10/09 02:11:07;;;;;;;17.45;10.43;;;12.30;96.70;;;;;;5052361;28;20378;-58
2022/10/09 02:13:34;;;;;;;15.88;9.27;;;12.30;96.60;;;;;;5050099;28;20037;-58
2022/10/09 02:16:05;;;;;;;15.23;9.68;;;12.30;96.70;;;;;;5051696;28;20052;-57
2022/10/09 02:18:44;;;;;;;17.95;10.55;;;12.30;96.60;;;;;;5052731;28;20500;-62
2022/10/09 02:21:25;;;;;;;15.35;9.30;;;12.30;96.50;;;;;;5052788;28;20029;-60
2022/10/09 02:23:53;;;;;;;14.43;9.18;;;12.30;96.60;;;;;;5050186;28;20033;-56
2022/10/09 02:26:19;;;;;;;13.82;8.80;;;12.20;96.60;;;;;;5051382;28;20029;-56
2022/10/09 02:28:45;;;;;;;11.30;8.02;;;12.20;96.70;;;;;;5052611;28;20051;-57
2022/10/09 02:31:16;;;;;;;15.55;8.23;;;12.20;96.80;;;;;;5052389;28;20037;-58
2022/10/09 02:33:42;;;;;;;13.20;8.75;;;12.20;96.80;;;;;;5051076;28;20094;-55
2022/10/09 02:36:07;;;;;;;14.68;8.63;;;12.20;96.70;;;;;;5052517;28;20470;-57
2022/10/09 02:38:33;;;;;;;13.95;7.57;;;12.20;96.70;;;;;;5052755;28;20075;-56
2022/10/09 02:40:59;;;;;;;16.17;7.03;;;12.20;96.80;;;;;;5052108;28;20021;-57
2022/10/09 02:43:25;;;;;;;10.38;7.30;;;12.30;96.70;;;;;;5042920;28;20025;-62
2022/10/09 02:45:50;;;;;;;14.20;6.85;;;12.30;96.60;;;;;;5043871;28;20079;-62
2022/10/09 02:48:16;;;;;;;17.38;7.88;;;12.20;96.50;;;;;;5052774;28;20088;-63
2022/10/09 02:50:42;;;;;;;12.77;6.35;;;12.20;96.60;;;;;;5052314;28;20096;-64
2022/10/09 02:53:07;;;;;;;8.38;6.88;;;12.10;96.70;;;;;;5047037;28;20034;-63
2022/10/09 02:55:34;;;;;;;13.45;7.20;;;12.10;96.70;;;;;;5032522;28;20026;-64
2022/10/09 02:58:00;;;;;;;8.85;6.13;;;12.10;96.80;;;;;;5036054;28;20494;-64
2022/10/09 03:00:26;;;;;;;11.85;7.00;;;12.10;96.80;;;;;;5036163;28;20021;-65
2022/10/09 03:02:52;;;;;;;12.40;6.88;;;12.10;96.80;;;;;;5036724;28;20036;-63
2022/10/09 03:05:17;;;;;;;12.30;6.65;;;12.10;96.90;;;;;;5056018;28;20037;-59
2022/10/09 03:07:49;;;;;;;11.65;6.45;;;12.00;96.90;;;;;;5056232;28;20029;-59
2022/10/09 03:10:19;;;;;;;10.65;6.78;;;12.00;96.80;;;;;;5055585;28;20017;-59
2022/10/09 03:12:44;;;;;;;10.55;6.53;;;12.00;96.90;;;;;;5055694;28;20037;-58
2022/10/09 03:15:11;;;;;;;9.80;5.68;;;12.00;96.80;;;;;;5053265;28;20536;-59
2022/10/09 03:17:36;;;;;;;10.25;5.97;;;12.00;96.90;;;;;;5055846;28;20111;-61
2022/10/09 03:20:02;;;;;;;9.68;5.90;;;12.00;97.00;;;;;;5051998;28;20151;-58
2022/10/09 03:22:27;;;;;;;11.40;7.13;;;12.00;97.00;;;;;;5035728;28;20033;-59
2022/10/09 03:24:53;;;;;;;12.23;6.55;;;11.90;97.00;;;;;;5035689;28;20028;-58
2022/10/09 03:27:19;;;;;;;9.68;5.75;;;11.90;97.00;;;;;;5042793;28;20033;-57
2022/10/09 03:29:45;;;;;;;8.98;5.97;;;11.90;97.00;;;;;;5055845;28;20021;-58
2022/10/09 03:32:11;;;;;;;10.23;5.85;;;11.90;97.00;;;;;;5055391;28;20033;-58
2022/10/09 03:34:36;;;;;;;10.60;6.43;;;11.90;97.10;;;;;;5055814;28;20130;-55
2022/10/09 03:37:02;;;;;;;9.00;6.20;;;11.90;97.10;;;;;;5039744;28;20526;-59
2022/10/09 03:39:27;;;;;;;11.57;6.25;;;11.90;97.20;;;;;;5037514;28;20500;-58
2022/10/09 03:41:53;;;;;;;11.52;6.53;;;11.90;97.20;;;;;;5038991;28;20020;-59
2022/10/09 03:44:18;;;;;;;9.55;6.10;;;11.80;97.20;;;;;;5035135;28;20025;-57
2022/10/09 03:46:45;;;;;;;13.20;7.07;;;11.90;97.20;;;;;;5035127;28;20024;-59
2022/10/09 03:49:11;;;;;;;12.48;6.72;;;11.90;97.20;;;;;;5035402;28;20095;-58
2022/10/09 03:51:36;;;;;;;10.40;6.57;;;11.80;97.30;;;;;;5035280;28;20466;-57
2022/10/09 03:54:02;;;;;;;10.00;6.10;;;11.80;97.40;;;;;;5034795;28;20026;-57
2022/10/09 03:56:27;;;;;;;13.27;6.47;;;11.80;97.40;;;;;;5035602;28;20045;-59
2022/10/09 03:58:53;;;;;;;11.95;6.75;;;11.80;97.40;;;;;;5035274;28;20033;-63
2022/10/09 04:01:19;;;;;;;11.77;6.38;;;11.80;97.50;;;;;;5035195;28;20077;-63
2022/10/09 04:03:44;;;;;;;12.10;6.53;;;11.80;97.40;;;;;;5035261;28;20076;-57
2022/10/09 04:06:10;;;;;;;9.45;5.50;;;11.80;97.50;;;;;;5035046;28;20061;-56
2022/10/09 04:08:35;;;;;;;13.95;6.90;;;11.70;97.60;;;;;;5035017;28;20021;-59
2022/10/09 04:11:01;;;;;;;11.70;6.57;;;11.80;97.60;;;;;;5034938;28;20076;-57
2022/10/09 04:13:27;;;;;;;10.93;6.25;;;11.70;97.50;;;;;;5034714;28;20438;-59
2022/10/09 04:15:53;;;;;;;11.07;6.10;;;11.70;97.50;;;;;;5034943;28;20083;-59
2022/10/09 04:18:19;;;;;;;9.60;6.43;;;11.70;97.50;;;;;;5035142;28;20029;-59
2022/10/09 04:20:52;;;;;;;11.23;5.50;;;11.70;97.60;;;;;;5034822;28;20072;-59
2022/10/09 04:23:19;;;;;;;14.13;5.60;;;11.70;97.60;;;;;;5034183;28;20319;-56
2022/10/09 04:25:45;;;;;;;10.02;6.03;;;11.70;97.60;;;;;;5034796;28;20378;-58
2022/10/09 04:28:11;;;;;;;11.30;6.00;;;11.60;97.60;;;;;;5034608;28;20495;-60
2022/10/09 04:30:37;;;;;;;10.75;6.95;;;11.70;97.60;;;;;;5034678;28;20416;-59
2022/10/09 04:33:02;;;;;;;9.00;6.53;;;11.60;97.60;;;;;;5034356;28;20040;-59
2022/10/09 04:35:28;;;;;;;13.60;6.38;;;11.60;97.60;;;;;;5034532;28;20033;-60
2022/10/09 04:37:53;;;;;;;9.88;6.30;;;11.60;97.60;;;;;;5034182;28;20487;-58
2022/10/09 04:40:19;;;;;;;13.85;6.78;;;11.60;97.60;;;;;;5034243;28;20053;-58
2022/10/09 04:42:45;;;;;;;8.88;5.93;;;11.60;97.70;;;;;;5034172;28;20497;-58
2022/10/09 04:45:10;;;;;;;16.98;6.45;;;11.70;97.70;;;;;;5034179;28;20105;-58
2022/10/09 04:47:36;;;;;;;12.65;6.05;;;11.60;97.70;;;;;;5034308;28;20080;-62
2022/10/09 04:50:02;;;;;;;10.45;6.40;;;11.50;97.80;;;;;;5033988;28;20017;-58
2022/10/09 04:52:27;;;;;;;10.45;6.10;;;11.60;97.90;;;;;;5033898;28;20430;-56
2022/10/09 04:54:53;;;;;;;10.15;5.82;;;11.60;97.80;;;;;;5034218;28;20029;-55
2022/10/09 04:57:18;;;;;;;10.43;5.00;;;11.60;97.90;;;;;;5034137;28;20100;-58
2022/10/09 04:59:44;;;;;;;12.13;5.28;;;11.60;97.90;;;;;;5033293;28;20021;-60
2022/10/09 05:02:10;;;;;;;10.57;5.20;;;11.60;97.90;;;;;;5017563;28;20037;-62
2022/10/09 05:04:35;;;;;;;11.93;5.28;;;11.50;97.80;;;;;;5013743;28;20100;-64
2022/10/09 05:07:01;;;;;;;10.93;5.75;;;11.60;98.00;;;;;;5013245;28;20034;-64
2022/10/09 05:09:27;;;;;;;8.18;4.50;;;11.60;97.80;;;;;;5013446;28;20022;-65
2022/10/09 05:11:52;;;;;;;11.57;4.95;;;11.60;97.70;;;;;;5014089;28;20036;-64
2022/10/09 05:14:18;;;;;;;12.90;5.45;;;11.60;97.80;;;;;;5013979;28;20034;-63
2022/10/09 05:16:43;;;;;;;11.32;4.75;;;11.60;97.80;;;;;;5013960;28;20352;-65
2022/10/09 05:19:09;;;;;;;9.02;5.05;;;11.60;97.70;;;;;;5013155;28;20018;-64
2022/10/09 05:21:35;;;;;;;13.00;4.30;;;11.60;97.70;;;;;;5013919;28;20014;-64
2022/10/09 05:24:01;;;;;;;11.52;4.50;;;11.60;97.80;;;;;;5013581;28;20425;-65
2022/10/09 05:26:27;;;;;;;10.70;4.25;;;11.50;97.80;;;;;;5014170;28;20480;-64
2022/10/09 05:28:53;;;;;;;10.13;4.60;;;11.60;97.80;;;;;;5013755;28;20475;-56
2022/10/09 05:31:29;;;;;;;8.65;4.63;;;11.50;97.80;;;;;;5013659;28;20045;-57
2022/10/09 05:33:57;;;;;;;10.70;4.47;;;11.50;97.80;;;;;;5013571;28;20125;-58
2022/10/09 05:36:22;;;;;;;8.20;4.63;;;11.50;97.70;;;;;;5013634;28;20053;-55
2022/10/09 05:38:48;;;;;;;9.43;4.70;;;11.50;97.80;;;;;;5013396;28;20057;-56
2022/10/09 05:41:15;;;;;;;12.60;4.97;;;11.50;97.80;;;;;;5013788;28;20018;-53
2022/10/09 05:43:44;;;;;;;11.93;4.68;;;11.50;97.70;;;;;;5013640;28;20040;-57
2022/10/09 05:46:11;;;;;;;13.02;4.28;;;11.60;97.70;;;;;;5013639;28;20029;-57
2022/10/09 05:48:38;;;;;;;10.93;4.97;;;11.50;97.70;;;;;;5012931;28;20056;-58
2022/10/09 05:51:13;;;;;;;9.13;4.55;;;11.50;97.80;;;;;;5013534;28;20033;-58
2022/10/09 05:53:40;;;;;;;10.52;4.18;;;11.50;97.80;;;;;;5013488;28;20040;-56
2022/10/09 05:56:26;;;;;;;7.97;4.32;;;11.50;98.00;;;;;;5013392;28;20044;-57
2022/10/09 05:59:00;;;;;;;12.05;4.97;;;11.50;98.00;;;;;;5013150;28;20049;-57
2022/10/09 06:01:29;;;;;;;7.95;4.43;;;11.40;98.00;;;;;;5013066;28;20040;-55
2022/10/09 06:03:57;;;;;;;10.88;4.70;;;11.40;98.10;;;;;;5013117;28;20383;-56
2022/10/09 06:06:25;;;;;;;9.35;4.53;;;11.40;98.10;;;;;;5013355;28;20378;-58
2022/10/09 06:08:50;;;;;;;8.57;4.50;;;11.40;98.10;;;;;;5013415;28;20064;-58
2022/10/09 06:11:22;;;;;;;9.90;5.10;;;11.40;98.40;;;;;;5013218;28;20483;-57
2022/10/09 06:13:48;;;;;;;11.93;4.40;;;11.40;98.20;;;;;;5013075;28;20038;-62
2022/10/09 06:16:16;;;;;;;12.23;4.47;;;11.40;98.20;;;;;;5012870;28;20265;-61
2022/10/09 06:18:47;;;;;;;9.07;4.30;;;11.40;98.10;;;;;;5012933;28;20033;-62
2022/10/09 06:21:14;;;;;;;9.17;4.47;;;11.40;98.20;;;;;;5013147;28;20022;-60
2022/10/09 06:23:39;;;;;;;11.57;4.60;;;11.40;98.30;;;;;;5012753;28;20766;-60
2022/10/09 06:26:08;;;;;;;8.85;4.43;;;11.40;98.40;;;;;;5013066;28;20029;-64
2022/10/09 06:28:34;;;;;;;9.20;4.50;;;11.40;98.40;;;;;;5012877;28;20026;-61
2022/10/09 06:31:12;;;;;;;10.35;4.78;;;11.40;98.50;;;;;;5015215;28;20468;-62
2022/10/09 06:33:39;;;;;;;8.45;4.40;;;11.40;98.50;;;;;;5016613;28;20038;-63
2022/10/09 06:36:07;;;;;;;8.35;3.72;;;11.40;98.60;;;;;;5017033;28;20029;-64
2022/10/09 06:38:34;;;;;;;13.80;5.22;;;11.40;98.70;;;;;;5016810;28;20115;-61
2022/10/09 06:41:12;;;;;;;11.93;4.47;;;11.40;98.70;;;;;;5016807;28;20026;-60
2022/10/09 06:43:38;;;;;;;12.55;4.75;;;11.50;98.80;;;;;;5016840;28;20030;-63
2022/10/09 06:46:07;;;;;;;12.68;4.65;;;11.50;99.10;;;;;;5031813;28;20097;-63
2022/10/09 06:48:35;;;;;;;8.75;4.32;;;11.60;99.30;;;;;;5016729;28;20033;-61
2022/10/09 06:51:02;;;;;;;9.60;4.90;;;11.70;99.40;;;;;;5016618;28;20515;-60
2022/10/09 06:53:28;;;;;;;11.48;4.82;;;11.80;99.30;;;;;;5016888;28;20113;-58
2022/10/09 06:55:55;;;;;;;9.63;4.63;;;11.90;99.10;;;;;;5017062;28;20165;-62
2022/10/09 06:58:21;;;;;;;12.73;5.25;;;12.00;98.90;;;;;;5016666;28;20029;-63
2022/10/09 07:00:46;;;;;;;9.13;4.55;;;12.00;98.80;;;;;;5016188;28;20032;-60
2022/10/09 07:03:12;;;;;;;8.10;4.72;;;12.10;98.60;;;;;;5016511;28;20062;-57
2022/10/09 07:05:38;;;;;;;9.65;4.47;;;12.10;98.70;;;;;;5016060;28;20034;-58
2022/10/09 07:08:03;;;;;;;8.85;4.13;;;12.10;98.50;;;;;;5027533;28;20430;-59
2022/10/09 07:10:29;;;;;;;11.23;5.13;;;12.20;98.50;;;;;;5019283;28;20022;-58
2022/10/09 07:12:54;;;;;;;12.85;5.05;;;12.20;98.40;;;;;;5032229;28;20398;-58
2022/10/09 07:15:20;;;;;;;10.48;5.13;;;12.20;98.20;;;;;;5026376;28;20032;-58
2022/10/09 07:17:45;;;;;;;8.93;5.18;;;12.30;98.40;;;;;;5024610;28;20036;-58
2022/10/09 07:20:11;;;;;;;11.52;4.50;;;12.30;98.40;;;;;;5032019;28;20033;-57
2022/10/09 07:22:36;;;;;;;8.95;5.03;;;12.40;98.30;;;;;;5034306;28;20041;-58
2022/10/09 07:25:02;;;;;;;10.25;4.45;;;12.40;98.30;;;;;;5029052;28;20057;-59
2022/10/09 07:27:28;;;;;;;11.00;4.78;;;12.50;97.90;;;;;;5028576;28;20505;-55
2022/10/09 07:29:54;;;;;;;9.85;4.70;;;12.50;97.90;;;;;;5030251;28;20022;-63
2022/10/09 07:32:19;;;;;;;9.50;4.55;;;12.50;97.80;;;;;;5022781;28;20018;-64
2022/10/09 07:34:45;;;;;;;10.57;4.40;;;12.60;97.80;;;;;;5034171;28;20072;-64
2022/10/09 07:37:10;;;;;;;10.52;4.53;;;12.60;97.70;;;;;;5030504;28;20038;-63
2022/10/09 07:39:36;;;;;;;10.32;4.88;;;12.60;97.50;;;;;;5038808;28;20467;-63
2022/10/09 07:42:02;;;;;;;10.98;4.55;;;12.70;97.50;;;;;;5034359;28;20068;-57
2022/10/09 07:44:28;;;;;;;7.78;3.72;;;12.70;97.40;;;;;;5031062;28;20064;-59
2022/10/09 07:46:53;;;;;;;9.40;3.90;;;12.80;97.60;;;;;;5039541;28;20498;-60
2022/10/09 07:49:19;;;;;;;9.77;4.15;;;12.80;97.80;;;;;;5039189;28;20033;-58
2022/10/09 07:51:45;;;;;;;9.02;4.10;;;12.90;97.70;;;;;;5031452;28;20021;-63
2022/10/09 07:54:11;;;;;;;6.97;3.85;;;12.90;97.40;;;;;;5032689;28;20065;-60
2022/10/09 07:56:37;;;;;;;7.88;3.38;;;12.90;97.30;;;;;;5037188;28;20017;-64
2022/10/09 07:59:05;;;;;;;12.27;4.35;;;13.00;97.40;;;;;;5041079;28;20028;-65
2022/10/09 08:01:32;;;;;;;6.05;3.30;;;13.00;97.60;;;;;;5036426;28;20033;-65
2022/10/09 08:03:58;;;;;;;8.18;2.90;;;13.00;97.70;;;;;;5038627;28;20029;-63
2022/10/09 08:06:24;;;;;;;8.82;4.15;;;13.00;97.90;;;;;;5037099;28;20121;-63
2022/10/09 08:08:55;;;;;;;7.53;3.78;;;13.10;97.70;;;;;;5029248;28;20439;-59
2022/10/09 08:11:22;;;;;;;9.15;3.80;;;13.00;97.00;;;;;;5024037;28;20025;-61
2022/10/09 08:13:48;;;;;;;9.52;3.65;;;13.10;97.00;;;;;;5038537;28;20037;-63
2022/10/09 08:16:15;;;;;;;5.80;3.40;;;13.10;97.50;;;;;;5038044;28;20021;-62
2022/10/09 08:18:41;;;;;;;8.50;2.80;;;13.20;97.50;;;;;;5034867;28;20055;-53
2022/10/09 08:21:18;;;;;;;8.50;3.78;;;13.20;97.40;;;;;;5032390;28;20057;-58
2022/10/09 08:23:44;;;;;;;7.60;3.50;;;13.20;97.20;;;;;;4988554;28;1103529;-58
2022/10/09 08:26:19;;;;;;;8.75;3.42;;;13.20;97.10;;;;;;5024132;28;20033;-58
2022/10/09 08:28:53;;;;;;;7.93;2.60;;;13.30;97.20;;;;;;5027303;28;20091;-57
2022/10/09 08:31:20;;;;;;;5.28;2.63;;;13.30;97.30;;;;;;5032537;28;20076;-64
2022/10/09 08:33:46;;;;;;;9.18;3.28;;;13.30;97.50;;;;;;5031963;28;20585;-62
2022/10/09 08:36:15;;;;;;;9.55;4.13;;;13.30;97.20;;;;;;5026430;28;20112;-61
2022/10/09 08:38:42;;;;;;;10.68;4.13;;;13.30;96.80;;;;;;5027959;28;20029;-64
2022/10/09 08:41:15;;;;;;;5.90;3.53;;;13.30;97.30;;;;;;5040989;28;20052;-64
2022/10/09 08:43:47;;;;;;;8.60;3.83;;;13.40;97.20;;;;;;5033059;28;20026;-56
2022/10/09 08:46:32;;;;;;;6.72;3.20;;;13.40;97.10;;;;;;5035241;28;20020;-63
2022/10/09 08:49:00;;;;;;;12.05;3.30;;;13.40;97.30;;;;;;5030714;28;20025;-63
2022/10/09 08:51:34;;;;;;;9.10;3.25;;;13.50;97.20;;;;;;5034331;28;20025;-62
2022/10/09 08:54:14;;;;;;;9.35;2.80;;;13.50;96.90;;;;;;5030274;28;20443;-63
2022/10/09 08:56:39;;;;;;;11.90;3.47;;;13.50;97.10;;;;;;5042592;28;20160;-64
2022/10/09 08:59:07;;;;;;;9.05;3.28;;;13.50;96.90;;;;;;5029436;28;20116;-63
2022/10/09 09:01:45;;;;;;;6.85;3.17;;;13.50;96.60;;;;;;5038721;28;20517;-60
2022/10/09 09:04:14;;;;;;;9.93;5.10;;;13.50;96.80;;;;;;5034953;28;20036;-60
2022/10/09 09:06:48;;;;;;;8.30;3.58;;;13.60;96.70;;;;;;5031764;28;20077;-61
2022/10/09 09:09:44;;;;;;;7.00;2.92;;;13.60;97.10;;;;;;5039931;28;20136;-62
2022/10/09 09:12:47;;;;;;;4.18;2.08;;;13.60;97.20;;;;;;5034073;28;20025;-62
2022/10/09 09:15:32;;;;;;;7.63;3.20;;;13.60;97.30;;;;;;4979451;28;20041;-62
2022/10/09 09:18:06;;;;;;;7.95;3.35;;;13.60;96.70;;;;;;5020626;28;20052;-62
2022/10/09 09:20:51;;;;;;;5.30;3.20;;;13.60;96.20;;;;;;5027709;28;20486;-59
2022/10/09 09:23:25;;;;;;;7.45;4.00;;;13.60;96.10;;;;;;5033248;28;20087;-58
2022/10/09 09:25:51;;;;;;;8.18;3.28;;;13.60;95.80;;;;;;5026895;28;20455;-60
2022/10/09 09:28:30;;;;;;;6.60;2.50;;;13.60;96.00;;;;;;5029483;28;20096;-58
2022/10/09 09:31:00;;;;;;;9.50;3.20;;;13.70;96.60;;;;;;5038573;28;20100;-59
2022/10/09 09:33:58;;;;;;;7.32;2.70;;;13.70;96.20;;;;;;5019694;28;20033;-62
2022/10/09 09:36:29;;;;;;;7.28;2.83;;;13.70;96.30;;;;;;5004765;28;20049;-58
2022/10/09 09:38:55;;;;;;;7.53;2.83;;;13.70;96.20;;;;;;5020942;28;20155;-56
2022/10/09 09:41:20;;;;;;;7.78;3.00;;;13.70;96.10;;;;;;5021988;28;20113;-57
2022/10/09 09:43:46;;;;;;;7.50;4.32;;;13.70;95.90;;;;;;5020676;28;20028;-62
2022/10/09 09:46:16;;;;;;;7.82;4.80;;;13.70;95.60;;;;;;5020772;28;20398;-60
2022/10/09 09:48:47;;;;;;;8.27;3.75;;;13.80;95.70;;;;;;5024454;28;20574;-63
2022/10/09 09:51:23;;;;;;;7.40;3.05;;;13.80;95.80;;;;;;5016134;28;20387;-63
2022/10/09 09:53:52;;;;;;;14.63;4.28;;;13.80;95.60;;;;;;5023294;28;20029;-61
2022/10/09 09:56:19;;;;;;;5.68;3.50;;;13.80;95.70;;;;;;5022670;28;20670;-58
2022/10/09 09:58:51;;;;;;;9.05;5.55;;;13.80;95.70;;;;;;5022495;28;20026;-60
2022/10/09 10:01:28;;;;;;;6.05;2.97;;;13.80;95.80;;;;;;5034619;28;20021;-59
2022/10/09 10:03:57;;;;;;;7.07;2.92;;;13.80;96.30;;;;;;5023183;28;20486;-59
2022/10/09 10:06:41;;;;;;;6.88;2.63;;;13.80;96.40;;;;;;5036505;28;20506;-61
2022/10/09 10:09:14;;;;;;;7.60;3.15;;;13.90;96.30;;;;;;5020908;28;20083;-59
2022/10/09 10:11:51;;;;;;;6.15;2.90;;;13.90;96.10;;;;;;5025401;28;20710;-60
2022/10/09 10:14:17;;;;;;;8.20;2.80;;;13.90;96.40;;;;;;5034415;28;20127;-58
2022/10/09 10:16:48;;;;;;;8.27;2.75;;;13.90;96.60;;;;;;5031390;28;20427;-59
2022/10/09 10:19:34;;;;;;;6.25;2.83;;;13.90;96.40;;;;;;5041794;28;20029;-59
2022/10/09 10:22:02;;;;;;;8.80;3.20;;;14.00;96.20;;;;;;5024801;28;20022;-59
2022/10/09 10:24:37;;;;;;;5.40;2.63;;;14.00;96.40;;;;;;5027929;28;20091;-59
2022/10/09 10:27:12;;;;;;;5.82;2.53;;;14.00;96.20;;;;;;5022103;28;20114;-59
2022/10/09 10:29:42;;;;;;;9.45;2.13;;;14.00;96.10;;;;;;5023338;28;20060;-61
2022/10/09 10:32:18;;;;;;;6.97;2.55;;;14.00;96.80;;;;;;5022225;28;20056;-63
2022/10/09 10:34:52;;;;;;;24.92;9.13;;;14.00;96.10;;;;;;5027602;28;20025;-58
2022/10/09 10:37:29;;;;;;;12.75;4.65;;;14.10;98.50;;;;;;5030041;28;20041;-63
2022/10/09 10:40:18;;;;;;;9.73;4.68;;;14.10;98.10;;;;;;5032701;28;20021;-60
2022/10/09 10:43:17;;;;;;;13.82;6.00;;;14.10;97.60;;;;;;5036153;28;20594;-54
2022/10/09 10:45:43;;;;;;;20.02;9.30;;;14.20;97.80;;;;;;5011521;28;20037;-66
2022/10/09 10:48:16;;;;;;;13.15;5.40;;;14.20;98.00;;;;;;5033060;28;20021;-61
2022/10/09 10:50:51;;;;;;;9.38;4.97;;;14.20;97.30;;;;;;5031331;28;20044;-58
2022/10/09 10:54:00;;;;;;;8.70;3.65;;;14.20;96.40;;;;;;5028600;28;20068;-63
2022/10/09 10:56:37;;;;;;;10.52;4.53;;;14.20;95.70;;;;;;5026403;28;20475;-63
2022/10/09 10:59:09;;;;;;;9.55;2.95;;;14.20;96.80;;;;;;5032569;28;20108;-64
2022/10/09 11:01:45;;;;;;;13.30;4.00;;;14.20;95.70;;;;;;5030967;28;20025;-63
2022/10/09 11:04:28;;;;;;;9.40;5.10;;;14.20;96.00;;;;;;5020390;28;20292;-62
2022/10/09 11:07:07;;;;;;;11.15;4.50;;;14.30;96.40;;;;;;5027248;28;20087;-59
2022/10/09 11:09:41;;;;;;;14.85;5.75;;;14.30;96.30;;;;;;5029142;28;20141;-59
2022/10/09 11:12:30;;;;;;;15.02;6.53;;;14.30;96.60;;;;;;5031127;28;20032;-59
2022/10/09 11:15:29;;;;;;;11.57;4.90;;;14.40;97.10;;;;;;5021940;28;20415;-58
2022/10/09 11:18:06;;;;;;;12.80;6.05;;;14.40;97.30;;;;;;5042546;28;20030;-59
2022/10/09 11:20:48;;;;;;;11.02;4.95;;;14.30;97.10;;;;;;5031921;28;20487;-64
2022/10/09 11:23:22;;;;;;;6.57;2.88;;;14.40;97.10;;;;;;5045604;28;20029;-63
2022/10/09 11:26:13;;;;;;;8.30;3.33;;;14.40;96.50;;;;;;5038366;28;20087;-60
2022/10/09 11:28:47;;;;;;;6.75;3.15;;;14.40;96.30;;;;;;5040094;28;20448;-62
2022/10/09 11:31:18;;;;;;;7.30;3.00;;;14.40;96.30;;;;;;5031460;28;20118;-64
2022/10/09 11:33:54;;;;;;;8.98;4.60;;;14.50;95.90;;;;;;5033968;28;20041;-61
2022/10/09 11:36:26;;;;;;;7.75;3.08;;;14.50;95.60;;;;;;5036405;28;20030;-60
2022/10/09 11:38:59;;;;;;;12.43;5.18;;;14.50;94.90;;;;;;5033206;28;20029;-62
2022/10/09 11:41:26;;;;;;;7.75;3.20;;;14.50;96.00;;;;;;5032958;28;20112;-64
2022/10/09 11:44:29;;;;;;;10.57;3.25;;;14.50;95.90;;;;;;5040074;28;20032;-64
2022/10/09 11:47:22;;;;;;;12.05;4.75;;;14.60;95.60;;;;;;5029801;28;20041;-64
2022/10/09 11:49:57;;;;;;;10.80;4.78;;;14.60;97.10;;;;;;5028239;28;20043;-64
2022/10/09 11:52:41;;;;;;;10.30;3.22;;;14.70;97.80;;;;;;5030590;28;20431;-61
2022/10/09 11:55:19;;;;;;;8.45;3.28;;;14.70;96.60;;;;;;5033837;28;20401;-64
2022/10/09 11:57:45;;;;;;;9.02;4.10;;;14.70;97.00;;;;;;5019391;28;20461;-64
2022/10/09 12:00:11;;;;;;;7.78;3.40;;;14.70;97.50;;;;;;5040024;28;20033;-64
2022/10/09 12:02:37;;;;;;;5.50;2.50;;;14.70;97.50;;;;;;5032180;28;20043;-63
2022/10/09 12:05:42;;;;;;;8.23;3.03;;;14.70;95.70;;;;;;5028827;28;20030;-61
2022/10/09 12:08:25;;;;;;;7.80;2.45;;;14.80;96.90;;;;;;5010807;28;20034;-62
2022/10/09 12:10:58;;;;;;;7.88;2.88;;;14.80;96.30;;;;;;5019005;28;20398;-64
2022/10/09 12:13:56;;;;;;;10.38;3.47;;;14.80;95.70;;;;;;5026642;28;20612;-62
2022/10/09 12:16:44;;;;;;;10.10;3.20;;;14.90;95.40;;;;;;5032849;28;20387;-60
2022/10/09 12:19:35;;;;;;;4.80;2.20;;;14.90;95.10;;;;;;5037043;28;20036;-62
2022/10/09 12:22:03;;;;;;;5.65;2.38;;;14.90;95.20;;;;;;5039007;28;20040;-63
2022/10/09 12:24:53;;;;;;;6.38;2.75;;;14.90;95.90;;;;;;5032054;28;20037;-62
2022/10/09 12:27:33;;;;;;;7.03;2.58;;;14.90;96.50;;;;;;5034256;28;20478;-61
2022/10/09 12:30:11;;;;;;;6.72;2.58;;;15.00;96.20;;;;;;5034173;28;20109;-62
2022/10/09 12:32:40;;;;;;;7.10;2.53;;;15.00;95.20;;;;;;5036727;28;20042;-60
2022/10/09 12:35:23;;;;;;;9.85;2.40;;;15.00;94.90;;;;;;5033645;28;20038;-59
2022/10/09 12:37:49;;;;;;;8.73;2.42;;;15.00;96.80;;;;;;5031933;28;20056;-61
2022/10/09 12:40:20;;;;;;;11.20;2.25;;;15.00;96.30;;;;;;5027899;28;20049;-63
2022/10/09 12:42:46;;;;;;;9.70;2.45;;;15.10;96.70;;;;;;5029568;28;20035;-63
2022/10/09 12:45:29;;;;;;;5.85;2.20;;;15.10;97.20;;;;;;5026126;28;20030;-65
2022/10/09 12:47:57;;;;;;;12.25;2.35;;;15.10;96.90;;;;;;5032269;28;20036;-58
2022/10/09 12:50:25;;;;;;;5.85;1.70;;;15.20;96.70;;;;;;5021478;28;20021;-62
2022/10/09 12:53:01;;;;;;;5.15;2.35;;;15.20;95.70;;;;;;5043743;28;20657;-59
2022/10/09 12:55:33;;;;;;;6.55;2.45;;;15.20;95.30;;;;;;5029668;28;20037;-57
2022/10/09 12:58:05;;;;;;;5.53;2.00;;;15.20;96.10;;;;;;5021571;28;20029;-55